createdAt,value
2018-09-09T00:01:53.843Z,100040.77
2018-09-09T00:04:24.425Z,100037.84
2018-09-09T00:06:53.025Z,100035.02
2018-09-09T00:09:26.789Z,100033.72
2018-09-09T00:11:55.743Z,100034.52
2018-09-09T00:14:24.944Z,100037.73
2018-09-09T00:16:53.555Z,100036.53
2018-09-09T00:19:23.195Z,100036.41
2018-09-09T00:21:51.790Z,100032.93
2018-09-09T00:24:20.395Z,100036.83
2018-09-09T00:26:49.002Z,100033.66
2018-09-09T00:29:17.613Z,100040.11
2018-09-09T00:31:46.220Z,100032.66
2018-09-09T00:34:14.877Z,100035.80
2018-09-09T00:36:43.542Z,100033.77
2018-09-09T00:39:12.146Z,100034.80
2018-09-09T00:41:40.724Z,100035.45
2018-09-09T00:44:09.341Z,100032.25
2018-09-09T00:46:37.949Z,100026.81
2018-09-09T00:49:11.818Z,100030.70
2018-09-09T00:51:45.585Z,100031.70
2018-09-09T00:54:14.232Z,100029.55
2018-09-09T00:56:42.849Z,100030.00
2018-09-09T00:59:11.478Z,100029.64
2018-09-09T01:01:40.039Z,100025.95
2018-09-09T01:04:08.640Z,100030.75
2018-09-09T01:06:37.222Z,100033.03
2018-09-09T01:09:08.002Z,100023.65
2018-09-09T01:11:36.605Z,100022.30
2018-09-09T01:14:05.520Z,100026.74
2018-09-09T01:16:34.213Z,100025.53
2018-09-09T01:19:02.824Z,100021.82
2018-09-09T01:21:31.465Z,100025.89
2018-09-09T01:24:00.216Z,100033.94
2018-09-09T01:26:29.701Z,100030.84
2018-09-09T01:28:58.727Z,100036.08
2018-09-09T01:31:27.390Z,100039.27
2018-09-09T01:33:56.131Z,100038.55
2018-09-09T01:36:24.699Z,100040.95
2018-09-09T01:38:53.337Z,100038.21
2018-09-09T01:41:21.958Z,100037.07
2018-09-09T01:43:50.577Z,100037.87
2018-09-09T01:46:19.225Z,100041.81
2018-09-09T01:48:47.818Z,100035.93
2018-09-09T01:51:16.393Z,100036.00
2018-09-09T01:53:45.013Z,100045.09
2018-09-09T01:56:13.628Z,100040.06
2018-09-09T01:58:42.266Z,100046.58
2018-09-09T02:01:10.900Z,100046.16
2018-09-09T02:03:39.537Z,100044.94
2018-09-09T02:06:08.213Z,100044.16
2018-09-09T02:08:36.847Z,100047.73
2018-09-09T02:11:05.487Z,100047.69
2018-09-09T02:13:34.751Z,100049.39
2018-09-09T02:16:03.394Z,100052.81
2018-09-09T02:18:32.146Z,100053.59
2018-09-09T02:21:00.724Z,100047.55
2018-09-09T02:23:29.318Z,100054.25
2018-09-09T02:25:57.988Z,100056.11
2018-09-09T02:28:26.560Z,100054.52
2018-09-09T02:30:55.148Z,100055.47
2018-09-09T02:33:23.906Z,100055.17
2018-09-09T02:35:52.513Z,100053.81
2018-09-09T02:38:21.176Z,100053.88
2018-09-09T02:40:49.797Z,100053.75
2018-09-09T02:43:18.403Z,100058.41
2018-09-09T02:45:47.073Z,100060.56
2018-09-09T02:48:15.686Z,100056.17
2018-09-09T02:50:44.293Z,100056.92
2018-09-09T02:53:12.866Z,100051.45
2018-09-09T02:55:44.469Z,100059.64
2018-09-09T02:58:14.729Z,100061.19
2018-09-09T03:00:43.345Z,100053.06
2018-09-09T03:03:11.930Z,100061.86
2018-09-09T03:05:40.813Z,100064.31
2018-09-09T03:08:09.570Z,100060.20
2018-09-09T03:10:39.815Z,100066.12
2018-09-09T03:13:08.418Z,100062.23
2018-09-09T03:15:37.174Z,100065.48
2018-09-09T03:18:05.807Z,100066.48
2018-09-09T03:20:34.461Z,100066.13
2018-09-09T03:23:03.085Z,100064.98
2018-09-09T03:25:31.672Z,100060.03
2018-09-09T03:28:00.305Z,100061.66
2018-09-09T03:30:28.906Z,100061.33
2018-09-09T03:32:57.504Z,100061.44
2018-09-09T03:35:26.104Z,100060.27
2018-09-09T03:37:54.677Z,100061.54
2018-09-09T03:40:23.310Z,100064.75
2018-09-09T03:42:51.906Z,100066.59
2018-09-09T03:45:20.541Z,100063.23
2018-09-09T03:47:49.183Z,100063.42
2018-09-09T03:50:17.773Z,100061.41
2018-09-09T03:52:46.490Z,100066.31
2018-09-09T03:55:15.102Z,100071.55
2018-09-09T03:57:43.726Z,100070.53
2018-09-09T04:00:12.330Z,100073.09
2018-09-09T04:02:40.978Z,100079.22
2018-09-09T04:05:09.581Z,100073.47
2018-09-09T04:07:38.270Z,100077.52
2018-09-09T04:10:07.112Z,100079.54
2018-09-09T04:12:35.670Z,100079.12
2018-09-09T04:15:04.313Z,100079.17
2018-09-09T04:17:32.929Z,100079.12
2018-09-09T04:20:01.527Z,100079.71
2018-09-09T04:22:30.143Z,100085.36
2018-09-09T04:24:58.822Z,100084.98
2018-09-09T04:27:27.417Z,100085.36
2018-09-09T04:29:56.065Z,100085.16
2018-09-09T04:32:24.659Z,100082.11
2018-09-09T04:34:53.366Z,100088.55
2018-09-09T04:37:21.994Z,100086.09
2018-09-09T04:39:50.606Z,100096.49
2018-09-09T04:42:19.299Z,100094.78
2018-09-09T04:44:47.907Z,100099.02
2018-09-09T04:47:16.531Z,100097.61
2018-09-09T04:49:46.098Z,100105.64
2018-09-09T04:52:14.723Z,100096.56
2018-09-09T04:54:43.325Z,100105.52
2018-09-09T04:57:11.934Z,100103.75
2018-09-09T04:59:40.586Z,100107.12
2018-09-09T05:02:09.191Z,100107.41
2018-09-09T05:04:37.840Z,100106.80
2018-09-09T05:07:06.441Z,100100.11
2018-09-09T05:09:35.059Z,100100.38
2018-09-09T05:12:03.689Z,100101.95
2018-09-09T05:14:32.357Z,100105.58
2018-09-09T05:17:00.997Z,100103.94
2018-09-09T05:19:29.614Z,100109.46
2018-09-09T05:21:58.227Z,100112.30
2018-09-09T05:24:26.827Z,100110.32
2018-09-09T05:26:55.481Z,100112.54
2018-09-09T05:29:24.087Z,100112.16
2018-09-09T05:31:52.695Z,100108.58
2018-09-09T05:34:21.350Z,100112.28
2018-09-09T05:36:50.589Z,100117.92
2018-09-09T05:39:19.266Z,100117.73
2018-09-09T05:41:48.630Z,100120.67
2018-09-09T05:44:17.226Z,100126.09
2018-09-09T05:46:45.796Z,100125.70
2018-09-09T05:49:14.390Z,100117.45
2018-09-09T05:51:42.996Z,100119.00
2018-09-09T05:54:11.615Z,100120.33
2018-09-09T05:56:40.235Z,100117.22
2018-09-09T05:59:08.878Z,100127.92
2018-09-09T06:01:37.485Z,100126.45
2018-09-09T06:04:06.130Z,100129.55
2018-09-09T06:06:34.760Z,100128.16
2018-09-09T06:09:03.619Z,100130.84
2018-09-09T06:11:32.205Z,100130.22
2018-09-09T06:14:00.840Z,100132.25
2018-09-09T06:16:29.450Z,100130.45
2018-09-09T06:18:58.121Z,100135.44
2018-09-09T06:21:26.764Z,100141.47
2018-09-09T06:23:55.359Z,100136.23
2018-09-09T06:26:23.969Z,100138.80
2018-09-09T06:28:53.815Z,100142.95
2018-09-09T06:31:22.402Z,100144.03
2018-09-09T06:33:51.096Z,100144.75
2018-09-09T06:36:19.680Z,100145.28
2018-09-09T06:38:48.299Z,100145.70
2018-09-09T06:41:16.916Z,100143.06
2018-09-09T06:43:45.494Z,100144.36
2018-09-09T06:46:14.129Z,100150.84
2018-09-09T06:48:42.769Z,100151.56
2018-09-09T06:51:11.448Z,100151.37
2018-09-09T06:53:40.018Z,100150.02
2018-09-09T06:56:08.670Z,100151.56
2018-09-09T06:58:37.483Z,100160.85
2018-09-09T07:01:06.250Z,100158.34
2018-09-09T07:03:35.454Z,100161.02
2018-09-09T07:06:04.280Z,100160.09
2018-09-09T07:08:32.894Z,100163.94
2018-09-09T07:11:01.701Z,100168.47
2018-09-09T07:13:30.177Z,100173.66
2018-09-09T07:15:58.808Z,100170.91
2018-09-09T07:18:27.424Z,100168.64
2018-09-09T07:20:56.329Z,100168.33
2018-09-09T07:23:25.214Z,100166.60
2018-09-09T07:25:53.823Z,100172.13
2018-09-09T07:28:22.458Z,100174.74
2018-09-09T07:30:51.042Z,100180.47
2018-09-09T07:33:19.727Z,100173.97
2018-09-09T07:35:48.464Z,100167.61
2018-09-09T07:38:17.076Z,100176.62
2018-09-09T07:40:45.761Z,100170.38
2018-09-09T07:43:14.415Z,100179.94
2018-09-09T07:45:43.052Z,100185.53
2018-09-09T07:48:11.677Z,100183.92
2018-09-09T07:50:40.419Z,100177.06
2018-09-09T07:53:09.038Z,100176.86
2018-09-09T07:55:37.685Z,100177.22
2018-09-09T07:58:06.886Z,100178.37
2018-09-09T08:00:35.622Z,100179.53
2018-09-09T08:03:04.345Z,100174.30
2018-09-09T08:05:33.067Z,100183.52
2018-09-09T08:08:02.835Z,100188.73
2018-09-09T08:10:31.422Z,100188.05
2018-09-09T08:13:00.220Z,100189.42
2018-09-09T08:15:28.857Z,100183.19
2018-09-09T08:17:57.513Z,100188.98
2018-09-09T08:20:26.570Z,100190.07
2018-09-09T08:22:55.754Z,100194.28
2018-09-09T08:25:24.775Z,100189.00
2018-09-09T08:27:53.807Z,100182.64
2018-09-09T08:30:22.442Z,100181.39
2018-09-09T08:32:51.344Z,100188.75
2018-09-09T08:35:19.977Z,100187.42
2018-09-09T08:37:48.603Z,100179.91
2018-09-09T08:40:17.232Z,100183.97
2018-09-09T08:42:45.897Z,100184.13
2018-09-09T08:45:14.558Z,100180.00
2018-09-09T08:47:43.347Z,100181.20
2018-09-09T08:50:11.958Z,100182.75
2018-09-09T08:52:40.591Z,100176.69
2018-09-09T08:55:09.225Z,100171.05
2018-09-09T08:57:37.907Z,100174.20
2018-09-09T09:00:07.606Z,100170.20
2018-09-09T09:02:36.250Z,100163.47
2018-09-09T09:05:06.046Z,100166.23
2018-09-09T09:07:34.787Z,100165.17
2018-09-09T09:10:03.362Z,100166.90
2018-09-09T09:12:31.985Z,100162.34
2018-09-09T09:15:00.636Z,100169.37
2018-09-09T09:17:29.261Z,100171.44
2018-09-09T09:19:57.910Z,100164.81
2018-09-09T09:22:33.307Z,100168.48
2018-09-09T09:25:01.954Z,100169.80
2018-09-09T09:27:30.509Z,100165.13
2018-09-09T09:29:59.540Z,100163.38
2018-09-09T09:32:28.191Z,100162.18
2018-09-09T09:34:57.103Z,100154.27
2018-09-09T09:37:26.477Z,100149.99
2018-09-09T09:39:55.921Z,100150.95
2018-09-09T09:42:25.243Z,100150.94
2018-09-09T09:44:53.929Z,100139.60
2018-09-09T09:47:22.557Z,100140.95
2018-09-09T09:49:51.163Z,100147.48
2018-09-09T09:52:19.997Z,100134.28
2018-09-09T09:54:48.619Z,100133.54
2018-09-09T09:57:17.239Z,100127.58
2018-09-09T09:59:45.897Z,100125.34
2018-09-09T10:02:14.626Z,100125.20
2018-09-09T10:04:43.268Z,100130.44
2018-09-09T10:07:12.760Z,100131.19
2018-09-09T10:09:41.380Z,100120.28
2018-09-09T10:12:10.706Z,100116.81
2018-09-09T10:14:39.320Z,100114.03
2018-09-09T10:17:08.001Z,100105.59
2018-09-09T10:19:36.766Z,100108.11
2018-09-09T10:22:05.419Z,100111.18
2018-09-09T10:24:34.066Z,100104.78
2018-09-09T10:27:02.705Z,100105.33
2018-09-09T10:29:31.382Z,100105.85
2018-09-09T10:32:00.003Z,100108.14
2018-09-09T10:34:28.615Z,100107.17
2018-09-09T10:36:57.708Z,100099.50
2018-09-09T10:39:26.319Z,100103.97
2018-09-09T10:41:54.926Z,100106.37
2018-09-09T10:44:23.514Z,100107.14
2018-09-09T10:46:52.211Z,100108.85
2018-09-09T10:49:21.985Z,100109.00
2018-09-09T10:51:50.654Z,100114.51
2018-09-09T10:54:19.307Z,100113.55
2018-09-09T10:56:47.939Z,100101.81
2018-09-09T10:59:17.709Z,100112.34
2018-09-09T11:01:47.038Z,100106.62
2018-09-09T11:04:16.612Z,100101.98
2018-09-09T11:06:45.484Z,100099.62
2018-09-09T11:09:14.465Z,100101.79
2018-09-09T11:11:43.274Z,100107.16
2018-09-09T11:14:12.103Z,100106.82
2018-09-09T11:16:41.212Z,100106.44
2018-09-09T11:19:09.923Z,100101.00
2018-09-09T11:21:38.710Z,100103.05
2018-09-09T11:24:07.584Z,100097.87
2018-09-09T11:26:36.355Z,100100.44
2018-09-09T11:29:04.977Z,100104.04
2018-09-09T11:31:33.685Z,100112.95
2018-09-09T11:34:02.397Z,100105.73
2018-09-09T11:36:31.058Z,100107.19
2018-09-09T11:38:59.656Z,100108.48
2018-09-09T11:41:28.327Z,100097.20
2018-09-09T11:43:57.675Z,100088.53
2018-09-09T11:46:26.315Z,100093.89
2018-09-09T11:48:55.000Z,100091.91
2018-09-09T11:51:23.625Z,100091.11
2018-09-09T11:53:52.238Z,100095.11
2018-09-09T11:56:21.587Z,100094.82
2018-09-09T11:58:50.223Z,100081.93
2018-09-09T12:01:19.102Z,100087.98
2018-09-09T12:03:47.743Z,100082.94
2018-09-09T12:06:16.367Z,100087.05
2018-09-09T12:08:44.978Z,100086.89
2018-09-09T12:11:13.590Z,100074.64
2018-09-09T12:13:42.239Z,100071.56
2018-09-09T12:16:10.869Z,100075.55
2018-09-09T12:18:39.590Z,100071.80
2018-09-09T12:21:08.342Z,100072.61
2018-09-09T12:23:37.037Z,100069.81
2018-09-09T12:26:05.609Z,100076.78
2018-09-09T12:28:34.262Z,100064.55
2018-09-09T12:31:02.832Z,100070.11
2018-09-09T12:33:31.465Z,100067.09
2018-09-09T12:36:00.098Z,100066.02
2018-09-09T12:38:28.724Z,100072.00
2018-09-09T12:40:57.370Z,100064.75
2018-09-09T12:43:31.153Z,100054.01
2018-09-09T12:46:04.881Z,100055.66
2018-09-09T12:48:38.655Z,100055.57
2018-09-09T12:51:07.282Z,100063.92
2018-09-09T12:53:35.902Z,100048.65
2018-09-09T12:56:04.563Z,100060.38
2018-09-09T12:58:33.256Z,100056.07
2018-09-09T13:01:01.937Z,100054.01
2018-09-09T13:03:30.545Z,100061.14
2018-09-09T13:05:59.182Z,100048.17
2018-09-09T13:08:27.805Z,100052.86
2018-09-09T13:10:56.595Z,100048.36
2018-09-09T13:13:26.296Z,100044.53
2018-09-09T13:15:54.965Z,100052.67
2018-09-09T13:18:23.590Z,100040.58
2018-09-09T13:20:52.202Z,100038.80
2018-09-09T13:23:20.836Z,100035.64
2018-09-09T13:25:49.514Z,100030.66
2018-09-09T13:28:18.158Z,100027.57
2018-09-09T13:30:46.808Z,100031.10
2018-09-09T13:33:15.475Z,100033.48
2018-09-09T13:35:44.094Z,100030.56
2018-09-09T13:38:12.770Z,100026.87
2018-09-09T13:40:41.433Z,100021.13
2018-09-09T13:43:10.112Z,100034.78
2018-09-09T13:45:38.757Z,100026.08
2018-09-09T13:48:08.152Z,100023.90
2018-09-09T13:50:36.814Z,100029.17
2018-09-09T13:53:05.602Z,100023.81
2018-09-09T13:55:34.373Z,100034.27
2018-09-09T13:58:03.004Z,100035.53
2018-09-09T14:00:31.659Z,100027.11
2018-09-09T14:03:00.290Z,100022.04
2018-09-09T14:05:29.259Z,100026.45
2018-09-09T14:07:57.878Z,100015.64
2018-09-09T14:10:26.501Z,100022.51
2018-09-09T14:12:55.107Z,100018.59
2018-09-09T14:15:23.806Z,100019.16
2018-09-09T14:17:52.416Z,100025.23
2018-09-09T14:20:21.033Z,100022.47
2018-09-09T14:22:49.625Z,100023.05
2018-09-09T14:25:18.254Z,100018.22
2018-09-09T14:27:46.911Z,100021.12
2018-09-09T14:30:15.531Z,100018.77
2018-09-09T14:32:44.158Z,100024.31
2018-09-09T14:35:12.763Z,100020.53
2018-09-09T14:37:41.391Z,100018.39
2018-09-09T14:40:10.205Z,100022.48
2018-09-09T14:42:38.809Z,100033.14
2018-09-09T14:45:07.509Z,100032.25
2018-09-09T14:47:42.628Z,100027.23
2018-09-09T14:50:11.269Z,100034.05
2018-09-09T14:52:40.298Z,100034.03
2018-09-09T14:55:08.940Z,100028.27
2018-09-09T14:57:37.653Z,100033.00
2018-09-09T15:00:06.336Z,100033.78
2018-09-09T15:02:36.118Z,100028.88
2018-09-09T15:05:04.758Z,100032.60
2018-09-09T15:07:33.954Z,100035.02
2018-09-09T15:10:02.638Z,100033.25
2018-09-09T15:12:31.226Z,100030.67
2018-09-09T15:14:59.850Z,100026.42
2018-09-09T15:17:28.496Z,100034.94
2018-09-09T15:19:58.180Z,100030.97
2018-09-09T15:22:26.792Z,100035.77
2018-09-09T15:24:55.454Z,100032.17
2018-09-09T15:27:24.089Z,100034.34
2018-09-09T15:29:52.689Z,100029.86
2018-09-09T15:32:21.277Z,100027.56
2018-09-09T15:34:49.946Z,100028.02
2018-09-09T15:37:18.567Z,100018.14
2018-09-09T15:39:47.194Z,100017.06
2018-09-09T15:42:15.793Z,100018.64
2018-09-09T15:44:44.433Z,100023.34
2018-09-09T15:47:13.053Z,100023.03
2018-09-09T15:49:41.650Z,100025.38
2018-09-09T15:52:10.359Z,100020.05
2018-09-09T15:54:39.894Z,100017.95
2018-09-09T15:57:08.533Z,100016.66
2018-09-09T15:59:37.952Z,100023.66
2018-09-09T16:02:06.758Z,100020.44
2018-09-09T16:04:35.584Z,100028.24
2018-09-09T16:07:04.259Z,100030.22
2018-09-09T16:09:32.998Z,100031.52
2018-09-09T16:12:01.698Z,100037.56
2018-09-09T16:14:30.350Z,100028.84
2018-09-09T16:16:59.075Z,100036.55
2018-09-09T16:19:27.720Z,100031.55
2018-09-09T16:21:56.400Z,100039.63
2018-09-09T16:24:25.088Z,100046.80
2018-09-09T16:26:53.690Z,100051.77
2018-09-09T16:29:22.325Z,100052.55
2018-09-09T16:31:50.960Z,100039.75
2018-09-09T16:34:19.613Z,100045.25
2018-09-09T16:36:48.282Z,100031.55
2018-09-09T16:39:16.945Z,100027.13
2018-09-09T16:41:45.608Z,100024.70
2018-09-09T16:44:14.359Z,100031.95
2018-09-09T16:46:44.016Z,100020.23
2018-09-09T16:49:12.637Z,100016.66
2018-09-09T16:51:41.282Z,100016.06
2018-09-09T16:54:09.979Z,100020.70
2018-09-09T16:56:38.642Z,100022.73
2018-09-09T16:59:07.316Z,100023.98
2018-09-09T17:01:35.973Z,100024.78
2018-09-09T17:04:04.613Z,100024.69
2018-09-09T17:06:33.222Z,100019.63
2018-09-09T17:09:01.872Z,100017.28
2018-09-09T17:11:30.510Z,100013.66
2018-09-09T17:13:59.113Z,100016.58
2018-09-09T17:16:27.806Z,100009.78
2018-09-09T17:18:56.397Z,100013.58
2018-09-09T17:21:24.994Z,100015.69
2018-09-09T17:23:53.584Z,100024.36
2018-09-09T17:26:22.212Z,100022.88
2018-09-09T17:28:50.870Z,100022.75
2018-09-09T17:31:19.490Z,100020.67
2018-09-09T17:33:48.598Z,100026.09
2018-09-09T17:36:17.218Z,100025.10
2018-09-09T17:38:46.253Z,100022.20
2018-09-09T17:41:14.910Z,100023.22
2018-09-09T17:43:43.579Z,100024.96
2018-09-09T17:46:12.297Z,100029.95
2018-09-09T17:48:40.979Z,100028.70
2018-09-09T17:51:09.747Z,100025.08
2018-09-09T17:53:38.489Z,100027.20
2018-09-09T17:56:07.151Z,100019.59
2018-09-09T17:58:35.756Z,100024.60
2018-09-09T18:01:04.457Z,100030.26
2018-09-09T18:03:33.105Z,100027.53
2018-09-09T18:06:01.761Z,100029.86
2018-09-09T18:08:30.350Z,100040.47
2018-09-09T18:10:58.998Z,100040.56
2018-09-09T18:13:27.625Z,100050.28
2018-09-09T18:15:56.306Z,100055.03
2018-09-09T18:18:24.986Z,100062.83
2018-09-09T18:20:53.767Z,100065.80
2018-09-09T18:23:22.471Z,100063.77
2018-09-09T18:25:51.287Z,100072.71
2018-09-09T18:28:19.926Z,100076.48
2018-09-09T18:30:48.523Z,100072.09
2018-09-09T18:33:17.421Z,100074.70
2018-09-09T18:35:46.847Z,100080.91
2018-09-09T18:38:15.550Z,100090.83
2018-09-09T18:40:44.538Z,100089.02
2018-09-09T18:43:13.305Z,100091.42
2018-09-09T18:45:41.957Z,100091.14
2018-09-09T18:48:10.744Z,100088.48
2018-09-09T18:50:39.396Z,100092.70
2018-09-09T18:53:08.597Z,100084.87
2018-09-09T18:55:37.198Z,100083.71
2018-09-09T18:58:05.867Z,100081.42
2018-09-09T19:00:34.463Z,100076.14
2018-09-09T19:03:03.115Z,100080.84
2018-09-09T19:05:32.021Z,100072.20
2018-09-09T19:08:00.654Z,100075.41
2018-09-09T19:10:29.434Z,100070.22
2018-09-09T19:12:58.091Z,100077.39
2018-09-09T19:15:26.775Z,100073.75
2018-09-09T19:17:55.526Z,100075.27
2018-09-09T19:20:24.146Z,100071.95
2018-09-09T19:22:52.758Z,100077.64
2018-09-09T19:25:21.400Z,100078.41
2018-09-09T19:27:50.059Z,100082.45
2018-09-09T19:30:18.798Z,100083.12
2018-09-09T19:32:48.323Z,100080.47
2018-09-09T19:35:16.926Z,100079.27
2018-09-09T19:37:46.339Z,100075.88
2018-09-09T19:40:14.987Z,100080.30
2018-09-09T19:42:43.675Z,100079.59
2018-09-09T19:45:12.364Z,100086.40
2018-09-09T19:47:41.033Z,100084.78
2018-09-09T19:50:09.667Z,100086.03
2018-09-09T19:52:38.352Z,100078.46
2018-09-09T19:55:07.094Z,100076.08
2018-09-09T19:57:38.097Z,100079.48
2018-09-09T20:00:06.853Z,100080.20
2018-09-09T20:02:35.513Z,100088.30
2018-09-09T20:05:04.181Z,100088.52
2018-09-09T20:07:32.854Z,100089.81
2018-09-09T20:10:01.661Z,100091.52
2018-09-09T20:12:30.303Z,100089.37
2018-09-09T20:14:58.982Z,100092.28
2018-09-09T20:17:27.681Z,100098.14
2018-09-09T20:19:56.311Z,100091.91
2018-09-09T20:22:24.978Z,100094.35
2018-09-09T20:24:53.612Z,100094.03
2018-09-09T20:27:22.891Z,100087.09
2018-09-09T20:29:51.454Z,100082.62
2018-09-09T20:32:20.103Z,100092.41
2018-09-09T20:34:48.741Z,100090.32
2018-09-09T20:37:17.461Z,100096.04
2018-09-09T20:39:46.166Z,100095.59
2018-09-09T20:42:14.891Z,100094.34
2018-09-09T20:44:43.520Z,100097.06
2018-09-09T20:47:12.145Z,100098.48
2018-09-09T20:49:40.766Z,100102.50
2018-09-09T20:52:09.373Z,100097.54
2018-09-09T20:54:37.953Z,100092.64
2018-09-09T20:57:06.587Z,100099.78
2018-09-09T20:59:35.227Z,100101.56
2018-09-09T21:02:04.016Z,100096.30
2018-09-09T21:04:32.718Z,100098.84
2018-09-09T21:07:01.320Z,100100.59
2018-09-09T21:09:30.011Z,100097.55
2018-09-09T21:11:58.591Z,100097.47
2018-09-09T21:14:27.197Z,100092.20
2018-09-09T21:16:55.826Z,100093.13
2018-09-09T21:19:24.415Z,100096.86
2018-09-09T21:21:53.049Z,100094.95
2018-09-09T21:24:21.636Z,100098.84
2018-09-09T21:26:50.242Z,100092.41
2018-09-09T21:29:18.851Z,100093.94
2018-09-09T21:31:47.422Z,100092.43
2018-09-09T21:34:16.056Z,100094.53
2018-09-09T21:36:44.651Z,100094.55
2018-09-09T21:39:13.250Z,100099.97
2018-09-09T21:41:42.369Z,100101.27
2018-09-09T21:44:11.008Z,100100.72
2018-09-09T21:46:39.581Z,100099.91
2018-09-09T21:49:08.538Z,100100.31
2018-09-09T21:51:37.117Z,100092.09
2018-09-09T21:54:06.055Z,100093.84
2018-09-09T21:56:34.719Z,100093.84
2018-09-09T21:59:03.929Z,100086.51
2018-09-09T22:01:37.736Z,100096.54
2018-09-09T22:04:06.339Z,100095.66
2018-09-09T22:06:34.977Z,100094.14
2018-09-09T22:09:04.525Z,100092.63
2018-09-09T22:11:33.223Z,100098.80
2018-09-09T22:14:01.828Z,100098.58
2018-09-09T22:16:30.468Z,100094.07
2018-09-09T22:21:32.803Z,100097.09
2018-09-09T22:24:01.402Z,100098.23
2018-09-09T22:26:30.013Z,100093.24
2018-09-09T22:28:58.605Z,100100.84
2018-09-09T22:31:27.174Z,100095.78
2018-09-09T22:33:55.769Z,100098.70
2018-09-09T22:36:24.377Z,100094.96
2018-09-09T22:38:53.003Z,100100.03
2018-09-09T22:41:21.601Z,100097.77
2018-09-09T22:43:50.238Z,100099.50
2018-09-09T22:46:18.837Z,100101.89
2018-09-09T22:48:47.447Z,100104.98
2018-09-09T22:51:16.058Z,100107.67
2018-09-09T22:53:44.650Z,100111.49
2018-09-09T22:56:13.444Z,100109.95
2018-09-09T22:58:42.126Z,100108.28
2018-09-09T23:01:10.762Z,100108.52
2018-09-09T23:03:39.369Z,100112.60
2018-09-09T23:06:08.023Z,100111.67
2018-09-09T23:08:36.630Z,100108.30
2018-09-09T23:11:05.281Z,100104.61
2018-09-09T23:13:33.968Z,100100.80
2018-09-09T23:16:02.556Z,100101.44
2018-09-09T23:18:31.234Z,100104.52
2018-09-09T23:20:59.826Z,100111.96
2018-09-09T23:23:28.428Z,100111.27
2018-09-09T23:25:57.283Z,100116.62
2018-09-09T23:28:25.893Z,100107.48
2018-09-09T23:30:54.479Z,100109.45
2018-09-09T23:33:23.048Z,100105.14
2018-09-09T23:35:51.639Z,100111.90
2018-09-09T23:38:20.225Z,100111.70
2018-09-09T23:40:49.110Z,100108.03
2018-09-09T23:43:17.862Z,100114.19
2018-09-09T23:45:46.450Z,100112.91
2018-09-09T23:48:15.045Z,100108.79
2018-09-09T23:50:43.658Z,100109.81
2018-09-09T23:53:12.262Z,100112.89
2018-09-09T23:55:40.883Z,100116.80
2018-09-09T23:58:09.498Z,100119.02
